createdAt,value
2022-07-29T00:01:54.304Z,51.70
2022-07-29T00:04:59.812Z,51.91
2022-07-29T00:08:07.240Z,52.33
2022-07-29T00:11:13.954Z,52.19
2022-07-29T00:14:21.299Z,51.71
2022-07-29T00:17:27.663Z,52.35
2022-07-29T00:20:33.384Z,52.25
2022-07-29T00:23:43.801Z,51.92
2022-07-29T00:26:46.948Z,52.64
2022-07-29T00:29:52.477Z,51.66
2022-07-29T00:32:55.005Z,51.88
2022-07-29T00:36:01.242Z,52.31
2022-07-29T00:39:04.500Z,52.24
2022-07-29T00:42:08.329Z,52.11
2022-07-29T00:45:16.141Z,52.13
2022-07-29T00:48:18.964Z,51.91
2022-07-29T00:51:22.915Z,52.45
2022-07-29T00:54:28.509Z,52.46
2022-07-29T00:57:35.812Z,52.32
2022-07-29T01:00:38.927Z,53.38
2022-07-29T01:03:41.667Z,52.67
2022-07-29T01:06:45.185Z,53.38
2022-07-29T01:09:48.371Z,53.22
2022-07-29T01:13:00.261Z,53.17
2022-07-29T01:16:13.093Z,52.83
2022-07-29T01:19:40.033Z,53.48
2022-07-29T01:23:03.500Z,53.59
2022-07-29T01:26:35.997Z,53.39
2022-07-29T01:29:59.757Z,53.59
2022-07-29T01:33:09.118Z,52.70
2022-07-29T01:36:17.750Z,52.82
2022-07-29T01:39:37.429Z,53.25
2022-07-29T01:42:45.426Z,53.17
2022-07-29T01:46:02.750Z,53.51
2022-07-29T01:49:14.943Z,53.71
2022-07-29T01:52:34.149Z,53.63
2022-07-29T01:55:41.310Z,54.65
2022-07-29T01:58:46.756Z,53.73
2022-07-29T02:02:00.891Z,53.91
2022-07-29T02:05:06.999Z,54.82
2022-07-29T02:08:11.656Z,55.79
2022-07-29T02:11:18.501Z,55.79
2022-07-29T02:14:24.644Z,56.80
2022-07-29T02:17:36.132Z,57.19
2022-07-29T02:20:51.468Z,57.46
2022-07-29T02:23:55.764Z,57.56
2022-07-29T02:27:05.196Z,58.50
2022-07-29T02:30:31.768Z,58.44
2022-07-29T02:33:58.512Z,59.37
2022-07-29T02:37:13.607Z,59.56
2022-07-29T02:40:16.695Z,59.71
2022-07-29T02:43:23.781Z,59.25
2022-07-29T02:46:32.946Z,59.70
2022-07-29T02:49:52.277Z,59.98
2022-07-29T02:53:18.890Z,60.46
2022-07-29T02:56:28.603Z,60.63
2022-07-29T02:59:38.031Z,61.19
2022-07-29T03:02:53.488Z,61.05
2022-07-29T03:06:28.115Z,61.59
2022-07-29T03:09:43.810Z,62.26
2022-07-29T03:12:49.097Z,62.88
2022-07-29T03:15:53.592Z,62.76
2022-07-29T03:18:56.896Z,62.92
2022-07-29T03:22:03.987Z,62.70
2022-07-29T03:25:12.643Z,63.50
2022-07-29T03:28:15.976Z,63.74
2022-07-29T03:31:18.961Z,64.72
2022-07-29T03:34:23.488Z,64.70
2022-07-29T03:37:26.402Z,64.42
2022-07-29T03:40:37.292Z,64.80
2022-07-29T03:43:49.112Z,64.12
2022-07-29T03:46:56.557Z,63.58
2022-07-29T03:50:05.490Z,64.16
2022-07-29T03:53:15.495Z,63.25
2022-07-29T03:56:22.538Z,63.02
2022-07-29T03:59:26.312Z,62.63
2022-07-29T04:02:30.848Z,62.39
2022-07-29T04:05:36.670Z,62.21
2022-07-29T04:08:40.095Z,61.83
2022-07-29T04:11:56.983Z,62.59
2022-07-29T04:15:07.881Z,62.20
2022-07-29T04:18:15.439Z,61.80
2022-07-29T04:21:17.969Z,60.30
2022-07-29T04:24:23.255Z,60.07
2022-07-29T04:27:33.102Z,59.88
2022-07-29T04:30:45.573Z,60.03
2022-07-29T04:33:48.217Z,63.19
2022-07-29T04:36:52.445Z,59.93
2022-07-29T04:39:56.375Z,63.98
2022-07-29T04:42:59.291Z,63.59
2022-07-29T04:46:10.199Z,60.14
2022-07-29T04:49:13.212Z,61.12
2022-07-29T04:52:15.887Z,61.08
2022-07-29T04:55:21.992Z,60.74
2022-07-29T04:58:27.357Z,60.68
2022-07-29T05:01:30.287Z,61.05
2022-07-29T05:04:36.205Z,59.81
2022-07-29T05:07:40.443Z,60.18
2022-07-29T05:10:45.359Z,58.13
2022-07-29T05:13:50.822Z,58.00
2022-07-29T05:16:57.611Z,58.30
2022-07-29T05:20:00.404Z,57.20
2022-07-29T05:23:05.520Z,56.26
2022-07-29T05:26:08.402Z,55.14
2022-07-29T05:29:43.840Z,56.69
2022-07-29T05:32:33.737Z,55.93
2022-07-29T05:35:39.848Z,54.15
2022-07-29T05:38:51.375Z,55.21
2022-07-29T05:42:03.075Z,53.04
2022-07-29T05:45:06.572Z,52.14
2022-07-29T05:48:09.282Z,53.63
2022-07-29T05:51:20.216Z,52.51
2022-07-29T05:54:23.494Z,52.70
2022-07-29T05:57:27.049Z,51.91
2022-07-29T06:00:29.777Z,49.81
2022-07-29T06:03:32.610Z,51.12
2022-07-29T06:06:35.842Z,48.84
2022-07-29T06:09:39.114Z,48.33
2022-07-29T06:12:41.632Z,48.76
2022-07-29T06:15:52.516Z,48.15
2022-07-29T06:18:55.491Z,47.94
2022-07-29T06:21:58.686Z,48.34
2022-07-29T06:25:08.014Z,49.03
2022-07-29T06:28:14.759Z,47.80
2022-07-29T06:31:19.255Z,48.84
2022-07-29T06:34:22.436Z,47.08
2022-07-29T06:37:28.082Z,47.07
2022-07-29T06:40:51.617Z,45.74
2022-07-29T06:44:00.202Z,46.75
2022-07-29T06:47:15.147Z,47.51
2022-07-29T06:50:20.664Z,46.90
2022-07-29T06:53:25.866Z,47.09
2022-07-29T06:56:40.228Z,46.04
2022-07-29T07:00:05.841Z,45.96
2022-07-29T07:03:08.698Z,44.50
2022-07-29T07:06:14.950Z,45.20
2022-07-29T07:09:18.131Z,44.64
2022-07-29T07:12:23.335Z,44.28
2022-07-29T07:15:39.857Z,44.37
2022-07-29T07:18:46.407Z,43.76
2022-07-29T07:21:49.366Z,42.93
2022-07-29T07:25:04.893Z,43.24
2022-07-29T07:28:44.242Z,42.65
2022-07-29T07:32:25.325Z,42.15
2022-07-29T07:35:50.654Z,42.60
2022-07-29T07:39:32.225Z,42.67
2022-07-29T07:43:03.054Z,42.05
2022-07-29T07:46:43.361Z,41.62
2022-07-29T07:50:01.566Z,40.20
2022-07-29T07:53:51.374Z,39.54
2022-07-29T07:57:32.578Z,38.25
2022-07-29T08:00:49.007Z,38.35
2022-07-29T08:04:20.994Z,35.68
2022-07-29T08:07:46.752Z,35.96
2022-07-29T08:11:21.165Z,35.29
2022-07-29T08:14:48.595Z,33.77
2022-07-29T08:18:14.856Z,34.63
2022-07-29T08:21:40.133Z,33.44
2022-07-29T08:25:21.381Z,34.34
2022-07-29T08:28:41.988Z,33.48
2022-07-29T08:32:36.935Z,32.24
2022-07-29T08:36:00.754Z,32.03
2022-07-29T08:43:37.559Z,29.89
2022-07-29T08:47:26.015Z,29.78
2022-07-29T08:51:29.677Z,29.16
2022-07-29T09:12:50.525Z,26.21
2022-07-29T09:20:27.522Z,25.14
2022-07-29T09:50:25.941Z,20.03
2022-07-29T09:54:35.537Z,22.62
2022-07-29T09:58:23.670Z,19.75
2022-07-29T10:02:02.260Z,19.96
2022-07-29T10:05:41.522Z,19.99
2022-07-29T10:09:11.805Z,20.73
2022-07-29T10:12:53.932Z,20.93
2022-07-29T10:16:34.280Z,21.32
2022-07-29T10:20:00.825Z,21.28
2022-07-29T10:23:47.044Z,20.67
2022-07-29T10:27:07.354Z,19.73
2022-07-29T10:30:41.780Z,19.04
2022-07-29T10:34:54.830Z,19.12
2022-07-29T10:38:45.715Z,18.46
2022-07-29T10:42:29.782Z,17.89
2022-07-29T10:45:57.761Z,20.33
2022-07-29T10:49:30.960Z,18.90
2022-07-29T10:53:00.026Z,18.69
2022-07-29T10:56:30.483Z,19.61
2022-07-29T11:00:09.455Z,20.17
2022-07-29T11:03:57.250Z,19.82
2022-07-29T11:08:25.303Z,19.82
2022-07-29T11:11:52.101Z,18.65
2022-07-29T11:16:29.937Z,20.22
2022-07-29T11:19:26.176Z,21.11
2022-07-29T11:30:14.571Z,20.52
2022-07-29T11:33:56.530Z,21.40
2022-07-29T11:37:32.550Z,20.34
2022-07-29T11:41:24.132Z,22.02
2022-07-29T11:45:44.122Z,22.62
2022-07-29T11:48:32.649Z,24.05
2022-07-29T11:52:11.838Z,25.18
2022-07-29T11:55:51.609Z,23.85
2022-07-29T11:59:15.461Z,24.19
2022-07-29T12:02:48.665Z,21.64
2022-07-29T12:06:22.454Z,20.90
2022-07-29T12:10:20.037Z,20.65
2022-07-29T12:13:44.975Z,23.20
2022-07-29T12:17:30.877Z,25.11
2022-07-29T12:21:13.013Z,24.92
2022-07-29T12:25:23.258Z,24.83
2022-07-29T12:28:28.165Z,24.43
2022-07-29T12:31:58.265Z,24.52
2022-07-29T12:35:34.794Z,25.87
2022-07-29T12:39:02.326Z,26.33
2022-07-29T12:42:37.333Z,24.26
2022-07-29T12:46:17.429Z,23.62
2022-07-29T12:49:38.037Z,21.99
2022-07-29T12:53:12.660Z,22.90
2022-07-29T12:56:42.276Z,22.77
2022-07-29T13:00:09.077Z,22.58
2022-07-29T13:03:30.251Z,22.52
2022-07-29T13:07:07.667Z,24.37
2022-07-29T13:10:38.873Z,24.28
2022-07-29T13:14:06.599Z,24.31
2022-07-29T13:17:32.964Z,23.93
2022-07-29T13:24:56.113Z,24.23
2022-07-29T13:28:35.374Z,24.14
2022-07-29T13:32:04.922Z,25.83
2022-07-29T13:35:35.167Z,25.72
2022-07-29T13:39:04.048Z,25.18
2022-07-29T13:42:45.435Z,25.80
2022-07-29T13:46:14.255Z,24.52
2022-07-29T13:49:54.170Z,24.02
2022-07-29T13:53:39.608Z,24.88
2022-07-29T13:57:16.561Z,25.46
2022-07-29T14:00:52.674Z,25.39
2022-07-29T14:04:24.338Z,25.67
2022-07-29T14:07:51.980Z,24.96
2022-07-29T14:11:34.889Z,24.79
2022-07-29T14:15:05.317Z,24.06
2022-07-29T14:18:46.138Z,23.59
2022-07-29T14:22:11.054Z,24.01
2022-07-29T14:25:49.496Z,25.76
2022-07-29T14:29:17.218Z,24.95
2022-07-29T14:33:04.426Z,24.92
2022-07-29T14:36:33.961Z,24.86
2022-07-29T14:40:21.410Z,24.50
2022-07-29T14:44:08.964Z,24.40
2022-07-29T14:47:34.858Z,24.77
2022-07-29T14:51:05.294Z,24.24
2022-07-29T14:54:45.501Z,25.50
2022-07-29T14:58:16.477Z,24.69
2022-07-29T15:01:55.282Z,24.90
2022-07-29T15:05:22.656Z,24.64
2022-07-29T15:09:03.449Z,24.50
2022-07-29T15:12:31.973Z,24.84
2022-07-29T15:16:00.296Z,25.51
2022-07-29T15:19:24.401Z,24.71
2022-07-29T15:23:03.671Z,25.04
2022-07-29T15:26:31.125Z,24.17
2022-07-29T15:30:10.835Z,24.42
2022-07-29T15:33:36.471Z,24.78
2022-07-29T15:37:14.137Z,24.17
2022-07-29T15:40:47.497Z,24.67
2022-07-29T15:44:24.061Z,23.41
2022-07-29T15:47:51.523Z,24.13
2022-07-29T15:51:29.148Z,24.02
2022-07-29T15:54:57.778Z,23.49
2022-07-29T15:58:43.826Z,23.30
2022-07-29T16:02:14.477Z,23.70
2022-07-29T16:05:55.795Z,24.83
2022-07-29T16:09:24.011Z,23.98
2022-07-29T16:13:08.135Z,24.25
2022-07-29T16:16:35.604Z,25.24
2022-07-29T16:20:08.228Z,24.94
2022-07-29T16:23:52.917Z,24.84
2022-07-29T16:27:18.719Z,24.82
2022-07-29T16:30:48.721Z,24.92
2022-07-29T16:34:24.699Z,25.50
2022-07-29T16:37:56.563Z,25.56
2022-07-29T16:41:27.489Z,25.56
2022-07-29T16:44:55.855Z,25.53
2022-07-29T16:48:44.417Z,26.00
2022-07-29T16:52:15.927Z,27.82
2022-07-29T16:55:42.097Z,26.78
2022-07-29T16:59:19.475Z,27.71
2022-07-29T17:03:01.541Z,27.89
2022-07-29T17:06:50.746Z,28.08
2022-07-29T17:10:16.349Z,28.38
2022-07-29T17:14:00.482Z,28.89
2022-07-29T17:17:38.798Z,29.25
2022-07-29T17:21:29.972Z,29.11
2022-07-29T17:25:02.863Z,31.90
2022-07-29T17:28:48.510Z,31.12
2022-07-29T17:32:14.279Z,32.36
2022-07-29T17:36:09.575Z,32.50
2022-07-29T17:39:35.711Z,32.46
2022-07-29T17:43:13.539Z,33.25
2022-07-29T17:46:41.597Z,34.96
2022-07-29T17:50:23.785Z,34.78
2022-07-29T17:53:52.882Z,35.22
2022-07-29T17:57:33.950Z,36.85
2022-07-29T18:00:59.913Z,38.56
2022-07-29T18:04:38.783Z,39.37
2022-07-29T18:08:06.844Z,40.04
2022-07-29T18:11:46.264Z,41.32
2022-07-29T18:15:11.431Z,42.52
2022-07-29T18:18:48.976Z,42.75
2022-07-29T18:22:26.828Z,43.65
2022-07-29T18:26:07.255Z,43.88
2022-07-29T18:29:34.761Z,45.27
2022-07-29T18:33:21.644Z,45.46
2022-07-29T18:36:47.874Z,45.67
2022-07-29T18:40:25.852Z,46.70
2022-07-29T18:43:51.302Z,49.30
2022-07-29T18:47:32.240Z,50.89
2022-07-29T18:51:09.287Z,51.26
2022-07-29T18:54:45.446Z,52.24
2022-07-29T18:58:13.814Z,51.40
2022-07-29T19:02:06.240Z,51.72
2022-07-29T19:05:45.715Z,52.26
2022-07-29T19:09:17.256Z,51.54
2022-07-29T19:12:54.547Z,52.49
2022-07-29T19:16:27.360Z,52.33
2022-07-29T19:20:08.142Z,52.34
2022-07-29T19:24:00.072Z,52.47
2022-07-29T19:27:13.641Z,51.36
2022-07-29T19:30:44.272Z,46.46
2022-07-29T19:34:35.395Z,44.88
2022-07-29T19:38:04.538Z,41.09
2022-07-29T19:41:44.093Z,41.50
2022-07-29T19:45:10.325Z,41.13
2022-07-29T19:48:39.973Z,40.32
2022-07-29T19:52:05.937Z,41.20
2022-07-29T19:55:46.601Z,41.09
2022-07-29T19:59:04.323Z,40.83
2022-07-29T20:02:34.328Z,41.70
2022-07-29T20:06:04.795Z,41.85
2022-07-29T20:09:22.153Z,42.51
2022-07-29T20:12:55.069Z,42.31
2022-07-29T20:16:18.890Z,43.73
2022-07-29T20:19:39.053Z,43.03
2022-07-29T20:23:06.922Z,43.31
2022-07-29T20:26:38.036Z,43.63
2022-07-29T20:30:15.383Z,44.01
2022-07-29T20:33:40.473Z,44.23
2022-07-29T20:37:28.983Z,44.36
2022-07-29T20:40:58.689Z,44.57
2022-07-29T20:44:37.163Z,44.99
2022-07-29T20:48:08.143Z,45.70
2022-07-29T20:51:43.729Z,45.84
2022-07-29T20:55:11.818Z,45.96
2022-07-29T20:58:52.845Z,46.23
2022-07-29T21:02:18.381Z,46.22
2022-07-29T21:05:57.446Z,46.45
2022-07-29T21:09:22.403Z,46.98
2022-07-29T21:13:00.095Z,47.44
2022-07-29T21:16:26.782Z,47.66
2022-07-29T21:20:10.311Z,48.03
2022-07-29T21:23:44.390Z,48.48
2022-07-29T21:27:32.621Z,49.12
2022-07-29T21:31:02.706Z,49.77
2022-07-29T21:34:44.942Z,50.17
2022-07-29T21:38:18.838Z,50.58
2022-07-29T21:41:58.755Z,50.72
2022-07-29T21:45:26.613Z,51.25
2022-07-29T21:49:07.604Z,51.74
2022-07-29T21:52:33.270Z,52.08
2022-07-29T21:56:02.427Z,52.04
2022-07-29T21:59:28.253Z,52.73
2022-07-29T22:03:05.763Z,52.52
2022-07-29T22:06:45.654Z,52.87
2022-07-29T22:10:18.700Z,53.29
2022-07-29T22:13:58.915Z,54.19
2022-07-29T22:17:26.828Z,54.40
2022-07-29T22:21:04.481Z,54.64
2022-07-29T22:24:32.338Z,54.82
2022-07-29T22:28:12.425Z,55.63
2022-07-29T22:31:37.437Z,56.04
2022-07-29T22:35:15.856Z,56.13
2022-07-29T22:38:43.135Z,56.37
2022-07-29T22:42:20.269Z,56.86
2022-07-29T22:45:55.610Z,57.27
2022-07-29T22:49:34.157Z,57.58
2022-07-29T22:53:01.862Z,58.30
2022-07-29T22:56:39.588Z,58.49
2022-07-29T23:00:11.696Z,58.70
2022-07-29T23:03:52.434Z,59.41
2022-07-29T23:07:22.439Z,60.11
2022-07-29T23:11:03.137Z,60.37
2022-07-29T23:14:28.488Z,60.89
2022-07-29T23:18:09.323Z,60.96
2022-07-29T23:21:36.446Z,61.17
2022-07-29T23:25:15.760Z,61.52
2022-07-29T23:28:46.515Z,62.08
2022-07-29T23:32:26.436Z,62.25
2022-07-29T23:35:51.586Z,62.30
2022-07-29T23:39:29.303Z,62.84
2022-07-29T23:42:57.016Z,62.99
2022-07-29T23:46:35.225Z,63.49
2022-07-29T23:50:00.912Z,63.81
2022-07-29T23:53:39.381Z,64.02
2022-07-29T23:57:07.043Z,64.23
